Time;durP1;ratioP1;P1;durP2;ratioP2;P2;SDS_P1;SDS_P2;PMS_P1;PMS_P2;Temp;Humidity;BMP_temperature;BMP_pressure;BME280_temperature;BME280_humidity;BME280_pressure;Samples;Min_cycle;Max_cycle;Signal;HPM_P1;HPM_P2
2022/04/26 03:36:08;;;;;;;2.50;2.30;;;;;;;7.48;57.70;101240.72;4953152;28;97179;-46
2022/04/26 03:38:33;;;;;;;2.20;1.97;;;;;;;7.46;57.52;101243.16;4965985;28;97253;-46
2022/04/26 03:40:58;;;;;;;2.37;2.27;;;;;;;7.36;57.68;101241.66;4969654;28;97670;-46
2022/04/26 03:43:24;;;;;;;2.20;2.10;;;;;;;7.28;57.95;101243.91;4969397;28;97106;-46
2022/04/26 03:45:49;;;;;;;3.03;2.77;;;;;;;7.18;57.90;101245.13;4962279;28;96949;-46
2022/04/26 03:48:14;;;;;;;2.23;2.13;;;;;;;7.12;57.69;101248.91;4949525;28;126997;-46
2022/04/26 03:50:40;;;;;;;2.40;2.30;;;;;;;7.09;57.85;101242.38;4965080;28;102184;-47
2022/04/26 03:53:05;;;;;;;2.60;2.40;;;;;;;7.09;57.80;101245.09;4964656;28;96885;-46
2022/04/26 03:55:31;;;;;;;2.40;2.20;;;;;;;7.09;57.83;101247.84;4964002;28;127336;-46
2022/04/26 03:57:57;;;;;;;2.47;2.30;;;;;;;7.08;57.73;101251.78;4963829;28;127316;-45
2022/04/26 04:00:23;;;;;;;2.27;2.17;;;;;;;7.07;57.84;101268.66;4964553;28;97091;-45
2022/04/26 04:02:48;;;;;;;5.70;2.73;;;;;;;7.07;58.23;101257.72;4966736;28;97420;-45
2022/04/26 04:05:15;;;;;;;2.13;2.03;;;;;;;7.06;58.01;101253.44;4964250;28;126787;-45
2022/04/26 04:07:40;;;;;;;2.37;2.20;;;;;;;7.07;57.60;101257.72;4965128;28;96978;-46
2022/04/26 04:10:06;;;;;;;2.53;2.33;;;;;;;7.06;58.17;101256.94;4959432;28;97184;-47
2022/04/26 04:12:31;;;;;;;2.43;2.23;;;;;;;7.06;57.68;101273.34;4963589;28;97568;-45
2022/04/26 04:14:57;;;;;;;2.00;1.90;;;;;;;7.07;58.27;101272.16;4965073;28;111186;-45
2022/04/26 04:17:22;;;;;;;2.30;2.10;;;;;;;7.08;57.68;101272.91;4956961;28;127073;-47
2022/04/26 04:19:47;;;;;;;2.87;2.53;;;;;;;7.09;57.67;101275.19;4961902;28;106426;-45
2022/04/26 04:22:14;;;;;;;2.70;2.50;;;;;;;7.07;57.98;101280.38;4965582;28;97210;-45
2022/04/26 04:24:39;;;;;;;2.90;2.70;;;;;;;6.99;57.73;101275.63;4967432;28;97087;-46
2022/04/26 04:27:05;;;;;;;4.57;2.60;;;;;;;6.90;57.78;101281.84;4967395;28;98425;-46
2022/04/26 04:29:30;;;;;;;2.60;2.40;;;;;;;6.84;57.96;101283.63;4965381;28;97183;-46
2022/04/26 04:31:55;;;;;;;2.37;2.20;;;;;;;6.80;58.25;101272.06;4965746;28;112503;-45
2022/04/26 04:34:20;;;;;;;2.60;2.50;;;;;;;6.83;58.08;101276.66;4964664;28;97305;-46
2022/04/26 04:36:46;;;;;;;2.10;1.97;;;;;;;6.86;57.86;101278.47;4965025;28;128580;-46
2022/04/26 04:39:13;;;;;;;2.27;2.10;;;;;;;6.89;58.14;101280.31;4967123;28;112408;-47
2022/04/26 04:41:38;;;;;;;2.40;2.20;;;;;;;6.92;57.93;101276.69;4964700;28;97099;-46
2022/04/26 04:44:05;;;;;;;2.47;2.30;;;;;;;6.93;58.33;101278.19;4967300;28;128923;-46
2022/04/26 04:46:30;;;;;;;2.63;2.43;;;;;;;6.91;58.34;101286.09;4964463;28;98418;-45
2022/04/26 04:48:55;;;;;;;2.10;2.00;;;;;;;6.93;57.86;101280.91;4967510;28;98227;-46
2022/04/26 04:51:20;;;;;;;2.40;2.20;;;;;;;6.99;57.88;101284.59;4967028;28;111456;-47
2022/04/26 04:53:46;;;;;;;2.90;2.70;;;;;;;7.02;57.85;101283.69;4965577;28;126508;-46
2022/04/26 04:56:11;;;;;;;3.43;3.10;;;;;;;7.03;57.71;101298.91;4964343;28;126519;-46
2022/04/26 04:58:38;;;;;;;4.27;3.43;;;;;;;7.02;58.12;101294.63;4967378;28;97042;-46
2022/04/26 05:01:03;;;;;;;4.40;3.70;;;;;;;7.05;58.13;101296.47;4967391;28;96896;-48
2022/04/26 05:03:28;;;;;;;6.00;3.97;;;;;;;7.09;57.86;101305.28;4966038;28;97928;-46
2022/04/26 05:05:54;;;;;;;6.27;4.67;;;;;;;7.13;57.82;101297.69;4959241;28;126623;-46
2022/04/26 05:08:19;;;;;;;6.30;4.23;;;;;;;7.17;58.24;101301.06;4966245;28;97156;-46
2022/04/26 05:10:44;;;;;;;8.87;4.13;;;;;;;7.19;57.74;101298.63;4961075;28;96947;-46
2022/04/26 05:13:10;;;;;;;4.63;3.47;;;;;;;7.22;58.29;101299.69;4966067;28;126785;-46
2022/04/26 05:15:38;;;;;;;5.70;3.87;;;;;;;7.23;57.84;101304.72;4966320;28;97212;-46
2022/04/26 05:18:03;;;;;;;5.10;3.77;;;;;;;7.30;57.96;101311.88;4966298;28;96824;-46
2022/04/26 05:20:29;;;;;;;5.17;4.43;;;;;;;7.32;57.70;101315.69;4967959;28;97238;-46
2022/04/26 05:25:38;;;;;;;3.63;3.33;;;;;;;7.30;58.11;101317.34;4963553;28;96797;-45
2022/04/26 05:28:03;;;;;;;3.17;2.97;;;;;;;7.32;57.96;101320.38;4960072;28;97355;-46
2022/04/26 05:30:29;;;;;;;3.53;2.90;;;;;;;7.31;57.72;101322.38;4966930;28;96758;-46
2022/04/26 05:32:54;;;;;;;2.90;2.70;;;;;;;7.32;58.09;101317.66;4967993;28;97203;-46
2022/04/26 05:35:21;;;;;;;2.90;2.70;;;;;;;7.35;58.08;101319.50;4965423;28;96996;-46
2022/04/26 05:37:46;;;;;;;3.37;3.07;;;;;;;7.34;58.05;101323.44;4965635;28;96982;-46
2022/04/26 05:40:12;;;;;;;4.27;3.47;;;;;;;7.43;58.13;101323.44;4968064;28;96934;-46
2022/04/26 05:42:38;;;;;;;2.87;2.67;;;;;;;7.52;58.30;101323.47;4962534;28;99249;-46
2022/04/26 05:45:04;;;;;;;4.43;2.93;;;;;;;7.62;58.19;101327.75;4965322;28;97230;-46
2022/04/26 05:47:29;;;;;;;3.00;2.80;;;;;;;7.73;58.05;101322.59;4965493;28;96626;-46
2022/04/26 05:49:55;;;;;;;2.70;2.50;;;;;;;7.86;58.04;101325.16;4967839;28;97002;-46
2022/04/26 05:52:21;;;;;;;2.50;2.30;;;;;;;7.97;58.27;101322.75;4964531;28;97491;-46
2022/04/26 05:54:46;;;;;;;2.60;2.40;;;;;;;8.05;58.23;101318.47;4963630;28;114790;-46
2022/04/26 05:57:11;;;;;;;7.37;3.30;;;;;;;8.07;58.16;101319.53;5005213;22;113152;-79
2022/04/26 05:59:36;;;;;;;2.47;2.27;;;;;;;8.13;58.29;101344.31;4983656;28;96974;-79
2022/04/26 06:02:02;;;;;;;2.30;2.10;;;;;;;8.17;58.34;101332.00;4965783;28;124206;-79
2022/04/26 06:04:27;;;;;;;2.97;2.70;;;;;;;8.23;58.54;101318.44;4969006;28;100257;-79
2022/04/26 06:06:53;;;;;;;2.10;2.00;;;;;;;8.34;58.66;101312.50;4962671;28;112541;-79
2022/04/26 06:09:19;;;;;;;3.17;2.87;;;;;;;8.42;58.68;101344.63;4978637;28;97065;-79
2022/04/26 06:11:45;;;;;;;3.13;2.83;;;;;;;8.54;59.02;101323.75;4978751;28;96923;-78
2022/04/26 06:14:10;;;;;;;2.90;2.70;;;;;;;8.64;59.17;101317.00;4957533;28;99646;-79
2022/04/26 06:16:35;;;;;;;3.93;3.00;;;;;;;8.75;58.93;101330.97;4984134;28;106885;-80
2022/04/26 06:19:02;;;;;;;2.97;2.77;;;;;;;8.91;59.29;101336.09;4986980;28;96901;-79
2022/04/26 06:21:27;;;;;;;2.70;2.50;;;;;;;9.06;59.03;101334.19;4980345;28;98616;-80
2022/04/26 06:23:52;;;;;;;3.13;2.90;;;;;;;9.21;59.21;101342.50;4980464;28;97077;-80
2022/04/26 06:26:18;;;;;;;3.27;2.90;;;;;;;9.33;59.13;101339.53;4979991;28;111481;-80
2022/04/26 06:28:43;;;;;;;3.83;3.53;;;;;;;9.39;59.27;101317.69;4975115;28;111742;-79
2022/04/26 06:31:10;;;;;;;3.90;3.43;;;;;;;9.56;59.40;101344.28;4961046;28;100218;-80
2022/04/26 06:33:36;;;;;;;4.20;3.80;;;;;;;9.67;59.20;101324.53;4980974;28;97341;-79
2022/04/26 06:36:01;;;;;;;3.10;2.90;;;;;;;9.85;59.47;101323.63;4972786;28;97336;-79
2022/04/26 06:38:26;;;;;;;3.53;3.20;;;;;;;9.96;59.60;101321.81;4974261;28;97095;-80
2022/04/26 06:40:53;;;;;;;3.43;3.23;;;;;;;10.05;59.38;101313.50;4967278;28;100365;-81
2022/04/26 06:43:19;;;;;;;3.60;3.30;;;;;;;10.13;59.43;101333.94;4981695;28;99307;-79
2022/04/26 06:45:46;;;;;;;3.67;3.30;;;;;;;10.25;59.34;101329.38;4983294;28;98788;-77
2022/04/26 06:48:12;;;;;;;3.60;3.30;;;;;;;10.39;59.50;101328.63;4966972;28;97443;-79
2022/04/26 06:50:38;;;;;;;3.77;3.47;;;;;;;10.51;59.55;101322.84;4980204;28;96878;-79
2022/04/26 06:53:04;;;;;;;3.70;3.40;;;;;;;10.63;59.35;101345.81;4978145;28;98118;-80
2022/04/26 06:55:29;;;;;;;4.53;3.90;;;;;;;10.70;59.27;101320.66;4965690;28;96986;-80
2022/04/26 06:57:54;;;;;;;5.60;4.43;;;;;;;10.76;59.53;101317.97;4981161;28;97568;-81
2022/04/26 07:00:20;;;;;;;3.27;3.07;;;;;;;10.89;59.46;101341.22;4966669;28;106997;-80
2022/04/26 07:02:45;;;;;;;4.47;3.67;;;;;;;11.06;59.50;101333.19;4967149;28;114994;-80
2022/04/26 07:05:11;;;;;;;4.10;3.80;;;;;;;11.21;59.41;101322.91;4980078;28;104231;-82
2022/04/26 07:07:39;;;;;;;3.70;3.40;;;;;;;11.36;59.33;101323.59;4977691;28;97364;-82
2022/04/26 07:10:06;;;;;;;3.47;3.17;;;;;;;11.51;59.48;101329.06;4983728;28;98621;-80
2022/04/26 07:12:31;;;;;;;3.90;3.57;;;;;;;11.64;59.36;101338.47;4980965;28;97252;-81
2022/04/26 07:14:57;;;;;;;3.70;3.40;;;;;;;11.75;59.17;101344.16;4962275;28;97539;-80
2022/04/26 07:17:23;;;;;;;3.80;3.47;;;;;;;11.92;59.27;101355.41;4980084;28;97137;-80
2022/04/26 07:19:48;;;;;;;3.97;3.67;;;;;;;12.03;59.20;101338.97;4965776;28;99217;-81
2022/04/26 07:22:14;;;;;;;3.93;3.63;;;;;;;12.14;58.80;101387.97;4963771;28;100304;-82
2022/04/26 07:24:40;;;;;;;3.70;3.40;;;;;;;12.21;58.55;101357.22;4967063;28;97201;-81
2022/04/26 07:27:05;;;;;;;4.40;4.00;;;;;;;12.28;58.76;101356.78;4985566;28;97007;-81
2022/04/26 07:29:31;;;;;;;3.53;3.23;;;;;;;12.47;58.87;101344.19;4980495;28;98128;-81
2022/04/26 07:31:56;;;;;;;4.33;3.87;;;;;;;12.61;58.85;101357.84;4982819;28;98237;-82
2022/04/26 07:34:21;;;;;;;4.30;4.00;;;;;;;12.80;58.85;101349.97;4970704;28;101566;-82
2022/04/26 07:36:48;;;;;;;3.70;3.50;;;;;;;12.99;58.67;101347.59;4966401;28;97039;-82
2022/04/26 07:39:17;;;;;;;3.87;3.60;;;;;;;13.15;58.73;101360.81;4980821;28;102886;-81
2022/04/26 07:41:47;;;;;;;3.73;3.43;;;;;;;13.26;58.60;101367.13;4981919;28;103456;-82
2022/04/26 07:44:13;;;;;;;4.13;3.30;;;;;;;13.34;58.65;101382.03;4978423;28;96953;-81
2022/04/26 07:46:39;;;;;;;3.30;3.00;;;;;;;13.44;58.16;101347.41;4958978;28;96825;-82
2022/04/26 07:49:06;;;;;;;4.37;3.97;;;;;;;13.56;58.32;101372.34;4980701;28;97027;-82
2022/04/26 07:51:32;;;;;;;4.20;3.90;;;;;;;13.68;58.32;101390.47;4966863;28;99280;-83
2022/04/26 07:53:58;;;;;;;3.93;3.50;;;;;;;13.91;57.93;101356.16;4954647;28;97183;-82
2022/04/26 07:56:24;;;;;;;4.67;4.33;;;;;;;13.96;57.96;101402.41;4979051;28;103262;-83
2022/04/26 07:58:49;;;;;;;4.40;4.00;;;;;;;14.10;57.99;101412.53;4966900;28;99764;-83
2022/04/26 08:01:15;;;;;;;4.03;3.73;;;;;;;14.17;57.76;101387.16;4953817;28;97408;-82
2022/04/26 08:03:40;;;;;;;3.73;3.50;;;;;;;14.27;57.51;101367.06;4964484;28;97099;-83
2022/04/26 08:06:05;;;;;;;3.70;3.40;;;;;;;14.52;57.49;101395.81;4979654;28;96977;-83
2022/04/26 08:08:31;;;;;;;3.73;3.47;;;;;;;14.72;57.67;101370.63;4981950;28;97728;-83
2022/04/26 08:10:57;;;;;;;4.27;3.83;;;;;;;14.84;57.14;101368.63;4982161;28;99032;-83
2022/04/26 08:13:23;;;;;;;4.50;4.10;;;;;;;14.84;57.21;101366.63;4961604;28;97391;-83
2022/04/26 08:15:48;;;;;;;5.53;3.47;;;;;;;14.84;57.12;101391.56;4974660;28;96966;-84
2022/04/26 08:18:14;;;;;;;10.50;3.43;;;;;;;15.06;56.97;101414.97;4964094;28;99512;-83
2022/04/26 08:20:39;;;;;;;3.50;3.23;;;;;;;15.17;57.33;101423.28;4978490;28;97870;-84
2022/04/26 08:23:08;;;;;;;4.47;3.40;;;;;;;15.32;57.05;101369.06;4968176;28;97022;-82
2022/04/26 08:28:18;;;;;;;3.33;3.13;;;;;;;15.58;57.16;101413.16;4981424;28;96905;-83
2022/04/26 08:30:43;;;;;;;4.00;3.70;;;;;;;15.82;56.50;101374.47;4969208;28;100123;-82
2022/04/26 08:33:08;;;;;;;4.23;3.83;;;;;;;15.82;55.70;101410.56;4967919;28;97087;-83
2022/04/26 08:35:34;;;;;;;4.37;3.97;;;;;;;16.00;56.21;101384.25;4982399;28;103074;-84
2022/04/26 08:37:59;;;;;;;4.23;3.80;;;;;;;16.32;55.96;101410.31;4961703;28;99522;-84
2022/04/26 08:40:26;;;;;;;4.93;4.50;;;;;;;16.57;55.99;101452.88;4966701;28;99427;-83
2022/04/26 08:42:51;;;;;;;5.30;3.77;;;;;;;16.77;55.81;101389.34;4967171;28;97543;-83
2022/04/26 08:45:19;;;;;;;5.27;4.33;;;;;;;16.73;55.25;101372.19;4982700;28;99520;-83
2022/04/26 08:53:23;;;;;;;4.13;3.83;;;;;;;16.78;53.74;101382.50;4971238;28;103410;-83
2022/04/26 08:55:51;;;;;;;4.53;4.10;;;;;;;16.89;54.09;101448.34;4963586;28;97194;-84
2022/04/26 08:58:25;;;;;;;6.00;3.67;;;;;;;16.92;53.59;101389.72;4940424;28;100170;-83
2022/04/26 09:01:10;;;;;;;4.90;4.33;;;;;;;17.12;49.45;101402.44;4979143;28;101251;-83
2022/04/26 09:03:59;;;;;;;4.70;4.30;;;;;;;17.21;52.38;101404.88;4953667;28;96881;-84
2022/04/26 09:06:30;;;;;;;4.33;3.73;;;;;;;17.47;52.71;101398.78;4977608;28;98843;-84
2022/04/26 09:09:24;;;;;;;4.70;4.20;;;;;;;17.66;51.03;101410.75;4982354;28;98662;-83
2022/04/26 09:12:11;;;;;;;4.33;3.93;;;;;;;17.89;51.29;101423.13;4957256;28;103007;-83
2022/04/26 09:14:47;;;;;;;5.20;4.67;;;;;;;18.10;51.45;101404.66;4945165;28;96705;-84
2022/04/26 09:17:13;;;;;;;4.70;4.13;;;;;;;18.06;51.97;101390.28;4928200;28;97404;-84
2022/04/26 09:19:46;;;;;;;4.73;4.23;;;;;;;18.27;52.49;101433.03;4960323;28;99373;-85
2022/04/26 09:22:44;;;;;;;5.00;4.50;;;;;;;18.44;51.56;101400.13;4935736;28;105120;-84
2022/04/26 09:25:14;;;;;;;4.87;4.47;;;;;;;18.41;51.46;101429.00;4947733;28;96893;-83
2022/04/26 09:27:54;;;;;;;4.50;4.10;;;;;;;18.56;50.59;101397.94;4933869;28;97323;-84
2022/04/26 09:30:22;;;;;;;5.53;4.63;;;;;;;18.66;51.62;101397.00;4929287;28;104659;-84
2022/04/26 09:32:49;;;;;;;3.93;3.60;;;;;;;18.86;51.18;101420.03;4957572;28;100254;-84
2022/04/26 09:36:00;;;;;;;3.90;3.60;;;;;;;18.93;48.45;101397.09;4930654;28;98076;-84
2022/04/26 09:38:26;;;;;;;2.87;2.67;;;;;;;19.19;49.97;101400.69;4916324;28;97591;-86
2022/04/26 09:41:20;;;;;;;4.00;3.40;;;;;;;19.21;46.92;101383.41;4958064;28;99795;-85
2022/04/26 09:44:42;;;;;;;2.57;2.37;;;;;;;19.38;46.57;101423.69;4907677;28;104744;-84
2022/04/26 09:47:43;;;;;;;2.57;2.37;;;;;;;19.50;44.43;101438.22;4892789;28;98089;-84
2022/04/26 09:54:31;;;;;;;;;;;;;;;;;;;;;
2022/04/26 10:00:30;;;;;;;2.60;2.40;;;;;;;20.13;43.81;101390.47;4920677;28;97467;-83
2022/04/26 10:03:30;;;;;;;2.53;2.33;;;;;;;19.88;44.98;101405.97;4910794;28;97402;-84
2022/04/26 10:06:08;;;;;;;7.03;1.97;;;;;;;19.52;43.15;101415.34;4953290;28;101738;-85
2022/04/26 10:16:56;;;;;;;1.80;1.70;;;;;;;19.30;44.67;101463.91;4772731;29;98005;-86
2022/04/26 10:20:35;;;;;;;;;;;;;;;;;;;;;
2022/04/26 10:27:35;;;;;;;;;;;;;;;;;;;;;
2022/04/26 10:30:46;;;;;;;2.20;1.70;;;;;;;19.13;45.32;101458.59;4888771;28;97391;-83
2022/04/26 10:37:34;;;;;;;3.40;1.70;;;;;;;19.36;45.12;101448.59;4865692;28;102408;-85
2022/04/26 10:40:30;;;;;;;2.10;2.00;;;;;;;19.36;45.47;101406.75;4837760;28;97060;-84
2022/04/26 10:43:55;;;;;;;1.87;1.73;;;;;;;19.49;45.65;101422.75;4861455;28;98814;-84
2022/04/26 10:48:49;;;;;;;2.20;2.00;;;;;;;19.50;46.14;101423.50;5005016;28;97193;-46
2022/04/26 10:51:34;;;;;;;3.97;2.80;;;;;;;19.57;43.74;101420.06;4997025;28;96749;-46
2022/04/26 10:54:00;;;;;;;2.23;2.03;;;;;;;19.60;45.58;101416.19;5001951;28;97462;-46
2022/04/26 10:56:25;;;;;;;2.93;2.70;;;;;;;19.69;45.93;101421.34;4998702;28;98100;-46
2022/04/26 10:58:52;;;;;;;1.97;1.87;;;;;;;19.74;45.69;101415.66;4996624;28;126100;-46
2022/04/26 11:01:17;;;;;;;2.63;2.33;;;;;;;19.76;45.15;101418.69;5000737;28;96695;-46
2022/04/26 11:03:53;;;;;;;2.17;2.00;;;;;;;19.76;44.18;101417.91;4996710;28;97128;-46
2022/04/26 11:06:38;;;;;;;2.30;2.20;;;;;;;19.56;43.52;101427.69;4999833;28;100466;-45
2022/04/26 11:09:12;;;;;;;2.07;1.97;;;;;;;19.57;44.68;101420.81;4997767;28;97370;-46
2022/04/26 11:11:52;;;;;;;2.50;2.03;;;;;;;19.64;44.91;101419.41;4997141;28;96964;-46
2022/04/26 11:14:19;;;;;;;1.90;1.80;;;;;;;19.75;45.53;101433.16;5000910;28;97497;-47
2022/04/26 11:16:57;;;;;;;2.40;2.20;;;;;;;19.81;44.83;101428.22;4999584;28;97357;-46
2022/04/26 11:19:31;;;;;;;2.37;2.27;;;;;;;19.81;45.29;101428.97;5000018;28;101481;-46
2022/04/26 11:22:02;;;;;;;1.90;1.80;;;;;;;19.84;45.79;101429.94;4999993;28;97054;-45
2022/04/26 11:29:55;;;;;;;3.87;2.23;;;;;;;19.80;45.91;101430.25;4996001;28;97317;-45
2022/04/26 11:32:44;;;;;;;2.10;2.00;;;;;;;19.82;45.07;101436.06;5000471;28;96920;-45
2022/04/26 11:35:17;;;;;;;4.67;2.07;;;;;;;19.81;45.71;101433.81;5002622;28;97334;-46
2022/04/26 11:37:44;;;;;;;1.73;1.60;;;;;;;19.77;45.66;101442.50;4996646;28;103135;-46
2022/04/26 11:40:10;;;;;;;1.90;1.80;;;;;;;19.74;45.84;101440.81;4996477;28;102795;-46
2022/04/26 11:42:35;;;;;;;2.60;2.40;;;;;;;19.71;45.89;101443.91;4999456;28;96929;-47
2022/04/26 11:45:04;;;;;;;2.70;2.50;;;;;;;19.66;46.09;101444.78;5003114;28;97139;-45
2022/04/26 11:47:41;;;;;;;2.60;2.40;;;;;;;19.62;45.52;101447.13;4998607;28;96967;-45
2022/04/26 11:50:10;;;;;;;3.50;2.30;;;;;;;19.58;45.48;101455.06;5000446;28;97467;-45
2022/04/26 11:52:35;;;;;;;2.50;2.30;;;;;;;19.54;46.51;101449.06;4998594;28;97156;-45
2022/04/26 11:55:00;;;;;;;2.33;2.07;;;;;;;19.47;46.51;101449.69;5000297;28;101831;-45
2022/04/26 11:57:26;;;;;;;2.27;2.17;;;;;;;19.39;46.77;101453.13;4999091;28;97444;-46
2022/04/26 11:59:52;;;;;;;2.20;2.00;;;;;;;19.26;46.67;101450.25;4998668;28;97046;-45
2022/04/26 12:02:18;;;;;;;1.80;1.70;;;;;;;19.09;46.70;101452.59;5000593;28;97392;-45
2022/04/26 12:04:43;;;;;;;1.73;1.63;;;;;;;18.96;47.27;101458.13;5000266;28;97143;-46
2022/04/26 12:07:09;;;;;;;1.93;1.83;;;;;;;18.90;47.58;101456.69;5001209;28;97641;-48
2022/04/26 12:09:34;;;;;;;2.73;1.60;;;;;;;18.87;47.94;101461.31;4999826;28;96973;-47
2022/04/26 12:12:04;;;;;;;3.90;1.63;;;;;;;18.84;48.24;101461.63;4997311;28;113242;-46
2022/04/26 12:14:30;;;;;;;1.90;1.80;;;;;;;18.82;48.71;101462.16;4999036;28;96906;-45
2022/04/26 12:16:56;;;;;;;2.07;1.97;;;;;;;18.78;48.49;101467.31;4999568;28;97611;-45
2022/04/26 12:19:35;;;;;;;2.77;1.70;;;;;;;18.75;49.50;101462.00;4999511;28;96751;-47
2022/04/26 12:22:02;;;;;;;2.10;2.00;;;;;;;18.76;49.53;101461.50;4998216;28;102210;-45
2022/04/26 12:24:30;;;;;;;3.87;1.73;;;;;;;18.77;49.52;101468.56;5001490;28;97136;-45
2022/04/26 12:27:13;;;;;;;2.30;1.77;;;;;;;18.78;49.81;101466.53;4990564;28;96789;-46
2022/04/26 12:29:44;;;;;;;1.80;1.50;;;;;;;18.78;49.77;101466.53;5003142;28;100250;-48
2022/04/26 12:32:11;;;;;;;2.07;1.97;;;;;;;18.81;49.77;101469.00;5003609;28;97001;-45
2022/04/26 12:34:52;;;;;;;1.83;1.73;;;;;;;18.84;50.03;101462.38;4999573;28;97413;-46
2022/04/26 12:37:23;;;;;;;1.83;1.73;;;;;;;18.85;49.66;101466.66;4997799;28;97352;-46
2022/04/26 12:39:52;;;;;;;2.73;1.63;;;;;;;18.90;49.66;101463.03;4994131;28;97077;-45
2022/04/26 12:42:27;;;;;;;2.50;2.00;;;;;;;18.94;49.52;101466.28;4997068;28;97137;-45
2022/04/26 12:44:57;;;;;;;1.80;1.70;;;;;;;18.95;49.43;101464.25;4999512;28;97030;-45
2022/04/26 12:53:02;;;;;;;2.13;2.03;;;;;;;18.89;47.97;101455.22;5000171;28;96703;-46
2022/04/26 12:55:30;;;;;;;1.90;1.80;;;;;;;18.90;47.90;101457.47;4999992;28;96944;-47
2022/04/26 12:57:59;;;;;;;2.03;1.80;;;;;;;18.93;47.53;101462.00;4978772;28;97533;-46
2022/04/26 13:00:26;;;;;;;1.80;1.70;;;;;;;18.95;47.55;101462.22;5000802;28;98201;-45
2022/04/26 13:02:54;;;;;;;2.20;2.00;;;;;;;18.99;47.29;101461.88;5001278;28;96836;-46
2022/04/26 13:05:21;;;;;;;1.90;1.80;;;;;;;19.01;47.11;101454.50;5003086;28;96956;-46
2022/04/26 13:07:47;;;;;;;2.10;2.00;;;;;;;19.04;47.12;101458.28;4992917;28;97641;-45
2022/04/26 13:10:14;;;;;;;2.00;1.90;;;;;;;19.04;46.70;101459.03;5000878;28;97526;-48
2022/04/26 13:12:39;;;;;;;2.20;2.00;;;;;;;19.07;46.88;101455.16;5001922;28;97374;-45
2022/04/26 13:15:08;;;;;;;3.57;2.93;;;;;;;19.07;45.97;101457.94;5008725;28;96929;-48
2022/04/26 13:17:35;;;;;;;4.67;2.80;;;;;;;19.08;46.68;101456.66;5003428;28;104093;-46
2022/04/26 13:20:01;;;;;;;2.40;2.20;;;;;;;19.10;47.14;101458.91;4995380;28;97375;-48
2022/04/26 13:22:26;;;;;;;2.90;2.70;;;;;;;19.13;47.25;101455.81;4996949;28;97418;-48
2022/04/26 13:24:51;;;;;;;3.20;2.50;;;;;;;19.15;47.31;101455.28;4997693;28;104265;-46
2022/04/26 13:27:18;;;;;;;2.30;2.17;;;;;;;19.17;46.89;101455.50;4995292;28;126955;-46
2022/04/26 13:29:43;;;;;;;1.60;1.50;;;;;;;19.19;46.71;101456.50;5000720;28;102146;-45
2022/04/26 13:32:09;;;;;;;2.53;2.20;;;;;;;19.21;46.49;101459.50;5001811;28;97364;-45
2022/04/26 13:34:34;;;;;;;3.07;1.83;;;;;;;19.24;46.91;101457.69;4998687;28;97028;-46
2022/04/26 13:36:59;;;;;;;1.90;1.57;;;;;;;19.24;46.47;101455.63;4989699;28;128146;-45
2022/04/26 13:39:24;;;;;;;1.53;1.43;;;;;;;19.23;46.27;101451.34;4996436;28;118582;-46
2022/04/26 13:41:50;;;;;;;1.97;1.87;;;;;;;19.23;45.73;101456.91;4992156;28;111711;-45
2022/04/26 13:44:19;;;;;;;3.40;1.80;;;;;;;19.22;45.55;101458.19;4997585;28;97241;-45
2022/04/26 13:46:44;;;;;;;2.00;1.80;;;;;;;19.22;45.84;101463.78;4997356;28;97685;-47
2022/04/26 13:49:10;;;;;;;2.10;1.93;;;;;;;19.21;45.58;101459.50;4993659;28;126877;-45
2022/04/26 13:51:36;;;;;;;1.93;1.70;;;;;;;19.23;45.47;101458.94;4997196;28;97286;-45
2022/04/26 13:54:01;;;;;;;1.80;1.70;;;;;;;19.26;45.90;101449.53;4996666;28;111541;-46
2022/04/26 13:56:26;;;;;;;1.90;1.80;;;;;;;19.30;45.93;101452.75;4998329;28;113174;-45
2022/04/26 13:58:51;;;;;;;2.20;2.00;;;;;;;19.33;45.69;101449.63;5001608;28;126891;-45
2022/04/26 14:01:17;;;;;;;1.83;1.73;;;;;;;19.37;45.40;101449.38;5000637;28;98758;-46
2022/04/26 14:03:42;;;;;;;1.97;1.87;;;;;;;19.41;45.19;101447.00;4999283;28;96987;-45
2022/04/26 14:06:10;;;;;;;2.00;1.90;;;;;;;19.45;45.14;101450.22;4995836;28;96950;-46
2022/04/26 14:08:36;;;;;;;2.27;2.07;;;;;;;19.50;44.73;101443.81;4994915;28;97111;-46
2022/04/26 14:11:02;;;;;;;1.90;1.80;;;;;;;19.58;45.00;101452.28;4994440;28;97418;-47
2022/04/26 14:13:27;;;;;;;2.07;1.97;;;;;;;19.65;44.52;101446.81;4996447;28;97330;-45
2022/04/26 14:24:07;;;;;;;2.00;1.90;;;;;;;19.74;44.24;101449.19;4991309;28;96751;-46
2022/04/26 14:26:34;;;;;;;1.70;1.60;;;;;;;19.78;44.97;101455.19;4991986;28;102052;-47
2022/04/26 14:28:59;;;;;;;2.00;1.87;;;;;;;19.83;44.54;101451.50;4999226;28;97396;-47
2022/04/26 14:31:25;;;;;;;1.70;1.60;;;;;;;19.82;44.89;101449.28;4999809;28;96810;-48
2022/04/26 14:33:50;;;;;;;2.13;2.00;;;;;;;19.86;44.90;101446.91;4997941;28;105647;-48
2022/04/26 14:36:15;;;;;;;2.60;2.30;;;;;;;19.88;44.53;101442.28;4996858;28;126847;-47
2022/04/26 14:38:40;;;;;;;2.30;2.10;;;;;;;19.87;44.62;101449.19;4996210;28;125310;-47
2022/04/26 14:41:06;;;;;;;1.83;1.73;;;;;;;19.93;44.28;101451.84;4997813;28;96896;-47
2022/04/26 14:43:31;;;;;;;2.20;2.10;;;;;;;20.06;44.25;101454.63;4998075;28;97077;-47
2022/04/26 14:45:56;;;;;;;2.00;1.90;;;;;;;20.18;44.16;101453.84;4995323;28;97911;-47
2022/04/26 14:48:23;;;;;;;2.03;1.93;;;;;;;20.31;43.60;101453.13;4988234;28;109770;-48
2022/04/26 14:50:49;;;;;;;3.17;2.00;;;;;;;20.48;43.65;101452.75;4994277;28;97132;-47
2022/04/26 14:53:15;;;;;;;2.00;1.90;;;;;;;20.77;42.88;101441.09;4995094;28;97056;-48
2022/04/26 14:55:40;;;;;;;2.23;2.07;;;;;;;20.83;43.16;101441.75;4992818;28;98535;-47
2022/04/26 14:58:09;;;;;;;6.03;2.17;;;;;;;20.93;42.68;101447.59;4997118;28;97280;-47
2022/04/26 15:00:36;;;;;;;1.83;1.73;;;;;;;20.80;42.40;101448.41;4997480;28;97994;-47
2022/04/26 15:03:03;;;;;;;1.77;1.67;;;;;;;20.76;42.67;101442.41;4999673;28;96945;-47
2022/04/26 15:05:28;;;;;;;4.40;1.73;;;;;;;20.85;42.78;101441.94;4996654;28;97590;-47
2022/04/26 15:10:38;;;;;;;3.30;2.00;;;;;;;20.94;42.46;101449.13;4994021;28;97347;-50
2022/04/26 15:18:30;;;;;;;2.03;1.93;;;;;;;20.90;41.69;101448.72;4997060;28;100670;-47
2022/04/26 15:20:56;;;;;;;2.47;2.20;;;;;;;20.88;41.88;101452.03;4998108;28;97219;-46
2022/04/26 15:23:21;;;;;;;2.60;2.40;;;;;;;20.86;41.46;101453.88;4995346;28;106430;-46
2022/04/26 15:25:52;;;;;;;8.53;5.63;;;;;;;20.81;40.88;101452.72;4999132;28;97585;-46
2022/04/26 15:28:21;;;;;;;6.53;3.70;;;;;;;20.61;40.57;101461.84;4999375;28;97453;-47
2022/04/26 15:30:46;;;;;;;2.63;2.37;;;;;;;20.51;41.42;101463.56;5004610;28;98642;-46
2022/04/26 15:33:12;;;;;;;3.47;2.10;;;;;;;20.29;40.56;101466.84;5003059;28;96795;-46
2022/04/26 15:35:38;;;;;;;2.07;1.97;;;;;;;20.03;40.50;101470.41;5004799;28;97814;-46
2022/04/26 15:38:06;;;;;;;1.90;1.80;;;;;;;19.88;40.82;101463.88;5001623;28;96712;-47
2022/04/26 15:40:31;;;;;;;2.00;1.90;;;;;;;19.82;40.58;101460.44;5003999;28;97006;-46
2022/04/26 15:42:56;;;;;;;2.17;2.07;;;;;;;19.75;40.75;101466.66;5003788;28;97008;-48
2022/04/26 15:45:22;;;;;;;1.97;1.87;;;;;;;19.70;40.75;101470.34;4999788;28;98079;-47
2022/04/26 15:47:47;;;;;;;1.80;1.67;;;;;;;19.69;40.74;101468.81;5002148;28;113632;-46
2022/04/26 15:50:12;;;;;;;1.70;1.60;;;;;;;19.70;40.76;101473.13;5005355;28;96836;-46
2022/04/26 15:52:39;;;;;;;3.93;1.50;;;;;;;19.70;41.12;101471.06;5000472;28;96863;-45
2022/04/26 15:55:05;;;;;;;1.93;1.50;;;;;;;19.69;40.95;101471.59;5002844;28;97156;-46
2022/04/26 15:57:30;;;;;;;4.00;3.37;;;;;;;19.68;40.71;101472.91;4992392;28;97241;-48
2022/04/26 15:59:56;;;;;;;2.40;2.20;;;;;;;19.68;40.84;101478.50;5001891;28;97076;-46
2022/04/26 16:02:23;;;;;;;2.20;2.00;;;;;;;19.64;40.95;101476.00;5002886;28;97088;-47
2022/04/26 16:04:49;;;;;;;2.00;1.90;;;;;;;19.59;40.70;101488.06;4997602;28;97370;-47
2022/04/26 16:07:14;;;;;;;4.50;1.43;;;;;;;19.55;40.44;101475.69;5005078;28;96870;-46
2022/04/26 16:20:35;;;;;;;2.07;1.90;;;;;;;19.23;40.48;101473.66;5000706;28;96914;-46
2022/04/26 16:23:05;;;;;;;1.90;1.80;;;;;;;19.15;40.31;101478.38;5001734;28;97392;-46
2022/04/26 16:25:30;;;;;;;1.90;1.77;;;;;;;19.15;40.37;101477.63;5003325;28;96945;-48
2022/04/26 16:27:57;;;;;;;4.43;1.90;;;;;;;19.05;40.30;101479.28;4999931;28;97388;-48